BIKF Airport Information

Runway Information
Runway 02 Length 10019 ft width 197 ft
Elevation 137 ft Threshold 19 ft Heading 360
Runway 20 Length 10019 ft Width 197 ft
Elevation 163 ft Threshold 19 ft Heading 180
Runway 11 Length 10056 ft width 197 ft
Elevation 111 ft Threshold 43 ft Heading 90
Runway 29 Length 10056 ft Width 197 ft
Elevation 171 ft Threshold 43 ft Heading 270
Airport Frequencies
Type A/G Name AIR GND Frequency 131.9 MHZ
Type APP Name APP Frequency 119.3 MHZ
Type ATIS Name ATIS Frequency 128.3 MHZ
Type DEP Name DEP Frequency 119.3 MHZ
Type GND Name GND Frequency 121.9 MHZ
Type OPS Name BASE OPS Frequency 129 MHZ
Type PMSV Name PMSV METR Frequency 125 MHZ
Type TWR Name TWR Frequency 118.3 MHZ
Airport Navaids
Type VORTAC Name Keflavik Frequency 112000 KHZ
Type NDB Name Keflavik Frequency 392 KHZ
Type NDB Name Oscar Kilo Frequency 364 KHZ
Airport Weather Information & NOTAM
ADDS - METARS form results

(0443 UTC 19 June 2019)
Data provider http://aviationweather.gov/metar/data/
 
METAR text: BIKF 190430Z 01019KT 9999 FEW026 06/01 Q1010
Conditions at: BIKF (KEFLAVIK (CIV/MI, IS) observed 0430 UTC 19 June 2019
Temperature: 6.0°C (43°F)
Dewpoint: 1.0°C (34°F) [RH = 70%]
Pressure (altimeter): 29.82 inches Hg (1010.0 mb)
Winds: from the N (10 degrees) at 22 MPH (19 knots; 9.8 m/s)
Visibility: 6 or more miles (10+ km)
Ceiling: at least 12,000 feet AGL
Clouds: few clouds at 2600 feet AGL
Weather: no significant weather observed at this time

METAR text: BIKF 190400Z 01017KT 9999 FEW026 06/01 Q1010
Conditions at: BIKF (KEFLAVIK (CIV/MI, IS) observed 0400 UTC 19 June 2019
Temperature: 6.0°C (43°F)
Dewpoint: 1.0°C (34°F) [RH = 70%]
Pressure (altimeter): 29.82 inches Hg (1010.0 mb)
Winds: from the N (10 degrees) at 20 MPH (17 knots; 8.7 m/s)
Visibility: 6 or more miles (10+ km)
Ceiling: at least 12,000 feet AGL
Clouds: few clouds at 2600 feet AGL
Weather: no significant weather observed at this time

Forecast for: BIKF (KEFLAVIK (CIV/MI, IS)
Text: TAF BIKF 190407Z 1906/2006 01017KT 9999 FEW025 TX12/1915Z TN07/2006Z
Forecast period: 0600 UTC 19 June 2019 to 0600 UTC 20 June 2019
Forecast type: FROM: standard forecast or significant change
Winds: from the N (10 degrees) at 20 MPH (17 knots; 8.7 m/s)
Visibility: 6 or more miles 10+ km)
Ceiling: at least 12,000 feet AGL
Clouds: few clouds at 2500 feet AGL
Weather: no significant weather forecast for this period